Archival Weather

Habib Bourguiba Intl

Habib Bourguiba Intl, Tunisia (DTMB)

Report from: Sunday, October 1, 2023 8:00 PM CET
Current time: Saturday, February 24, 2024 3:51 PM CET

Current weather – Weather history – Daily summaries
Weather forecast

Temperature25.0°C (77.0°F)
Dew point19.0°C (66.2°F)
Winds 6 kts (3.1 m/s, 6.9 mph) East (100°)
Visibility6.2 mi. (10 km)
Clouds Few clouds 2,600 ft. (792 m)
Altimeter30.18 in.Hg (1022 mB)
Relative humidity69 %
Density altitude1,163 ft. (355 m)
Flight conditions Visual Meteorological Conditions
Raw dataDTMB 011900Z 10006KT 9999 FEW026 25/19 Q1022
An error has occurred. This application may no longer respond until reloaded. Reload 🗙